Time;durP1;ratioP1;P1;durP2;ratioP2;P2;SDS_P1;SDS_P2;PMS_P1;PMS_P2;Temp;Humidity;BMP_temperature;BMP_pressure;BME280_temperature;BME280_humidity;BME280_pressure;Samples;Min_cycle;Max_cycle;Signal;HPM_P1;HPM_P2
2022/10/28 00:01:32;;;;;;;31.80;19.00;;;;;;;5.42;99.45;102474.66;107901;1255;71283;-69
2022/10/28 00:04:01;;;;;;;32.00;19.70;;;;;;;5.40;99.15;102473.66;107656;1267;69400;-69
2022/10/28 00:06:34;;;;;;;34.40;19.50;;;;;;;5.37;99.18;102467.84;107737;1265;71195;-70
2022/10/28 00:09:04;;;;;;;30.70;19.10;;;;;;;5.36;99.46;102468.39;107687;1264;57665;-70
2022/10/28 00:11:38;;;;;;;32.60;19.60;;;;;;;5.34;99.69;102466.54;107677;1261;57681;-71
2022/10/28 00:14:08;;;;;;;31.60;19.80;;;;;;;5.33;99.86;102464.48;107595;1269;72555;-70
2022/10/28 00:16:37;;;;;;;33.70;20.60;;;;;;;5.32;99.90;102465.52;107667;1258;71943;-69
2022/10/28 00:19:09;;;;;;;36.50;21.90;;;;;;;5.33;100.00;102459.98;107571;1267;70022;-69
2022/10/28 00:21:40;;;;;;;34.90;22.00;;;;;;;5.34;100.00;102460.48;107446;1263;73957;-69
2022/10/28 00:24:12;;;;;;;29.80;20.60;;;;;;;5.36;100.00;102455.95;107589;1266;58150;-69
2022/10/28 00:26:42;;;;;;;32.60;21.20;;;;;;;5.38;100.00;102456.41;107539;1260;60344;-69
2022/10/28 00:29:17;;;;;;;39.80;22.20;;;;;;;5.39;100.00;102452.41;107663;1270;63401;-69
2022/10/28 00:31:46;;;;;;;37.70;22.20;;;;;;;5.39;100.00;102453.29;107557;1262;61737;-69
2022/10/28 00:34:18;;;;;;;31.90;19.70;;;;;;;5.39;100.00;102452.95;107575;1263;60067;-70
2022/10/28 00:36:47;;;;;;;31.90;20.30;;;;;;;5.37;100.00;102450.73;107672;1260;62440;-69
2022/10/28 00:39:20;;;;;;;32.00;20.10;;;;;;;5.36;100.00;102450.06;107558;1260;61472;-69
2022/10/28 00:41:55;;;;;;;32.80;20.70;;;;;;;5.35;100.00;102451.13;107613;1264;57750;-70
2022/10/28 00:45:00;;;;;;;34.10;21.00;;;;;;;5.35;100.00;102454.59;107686;1260;62907;-69
2022/10/28 00:48:01;;;;;;;30.70;19.60;;;;;;;5.34;100.00;102451.67;107736;1259;61508;-70
2022/10/28 00:50:39;;;;;;;34.90;19.30;;;;;;;5.38;100.00;102448.48;107728;1266;68513;-69
2022/10/28 00:53:31;;;;;;;30.20;18.80;;;;;;;5.40;100.00;102449.64;107702;1256;63576;-70
2022/10/28 00:56:02;;;;;;;35.70;21.00;;;;;;;5.42;99.94;102449.77;107734;1260;61194;-68
2022/10/28 00:58:31;;;;;;;30.70;19.60;;;;;;;5.44;99.97;102448.33;107570;1268;61245;-68
2022/10/28 01:01:00;;;;;;;32.20;20.80;;;;;;;5.45;99.99;102445.73;107709;1260;64130;-69
2022/10/28 01:03:29;;;;;;;32.30;20.40;;;;;;;5.45;100.00;102443.66;107806;1269;61515;-69
2022/10/28 01:05:58;;;;;;;33.60;20.40;;;;;;;5.46;100.00;102444.32;107841;1260;70009;-69
2022/10/28 01:08:27;;;;;;;32.60;21.00;;;;;;;5.47;100.00;102442.91;107889;1258;74782;-69
2022/10/28 01:11:45;;;;;;;36.40;22.50;;;;;;;5.48;100.00;102442.70;107926;1255;62430;-69
2022/10/28 01:14:31;;;;;;;38.30;23.00;;;;;;;5.52;100.00;102441.58;107841;1264;58244;-69
2022/10/28 01:17:43;;;;;;;40.80;24.60;;;;;;;5.54;100.00;102439.11;107645;1272;73537;-69
2022/10/28 01:20:59;;;;;;;35.40;21.90;;;;;;;5.54;100.00;102436.67;107825;1264;72686;-69
2022/10/28 01:23:46;;;;;;;44.30;26.40;;;;;;;5.55;100.00;102436.31;107615;1260;70190;-70
2022/10/28 01:26:35;;;;;;;39.30;24.60;;;;;;;5.58;100.00;102431.59;107675;1263;63479;-70
2022/10/28 01:40:48;;;;;;;32.00;20.80;;;;;;;5.76;99.53;102427.67;102692;1302;614380;-69
2022/10/28 01:43:44;;;;;;;26.20;18.90;;;;;;;5.67;99.78;102425.15;104437;1275;357679;-69
2022/10/28 01:46:23;;;;;;;32.30;19.10;;;;;;;5.56;99.81;102422.65;105200;1275;58272;-69
2022/10/28 01:49:20;;;;;;;29.80;19.80;;;;;;;5.48;99.91;102425.09;105227;1261;70936;-69
2022/10/28 01:52:03;;;;;;;31.60;19.40;;;;;;;5.41;99.91;102423.70;105169;1267;61679;-69
2022/10/28 01:54:34;;;;;;;34.50;23.50;;;;;;;5.31;100.00;102424.11;105267;1263;70327;-69
2022/10/28 01:57:04;;;;;;;37.50;21.90;;;;;;;5.27;100.00;102419.17;105263;1267;75207;-69
2022/10/28 01:59:34;;;;;;;32.60;20.20;;;;;;;5.22;100.00;102424.64;105280;1270;61886;-69
2022/10/28 02:02:03;;;;;;;33.60;21.60;;;;;;;5.17;100.00;102422.17;105281;1270;59127;-69
2022/10/28 02:04:31;;;;;;;32.30;21.40;;;;;;;5.14;100.00;102420.86;105227;1275;72596;-69
2022/10/28 02:07:00;;;;;;;37.30;22.20;;;;;;;5.11;100.00;102419.90;105238;1267;70246;-70
2022/10/28 02:09:42;;;;;;;36.50;22.00;;;;;;;5.09;100.00;102420.64;105252;1267;69549;-68
2022/10/28 02:12:34;;;;;;;37.90;21.80;;;;;;;5.04;99.98;102418.48;105207;1270;73753;-69
2022/10/28 02:15:30;;;;;;;34.10;22.20;;;;;;;5.00;100.00;102417.02;105317;1266;61049;-68
2022/10/28 02:18:21;;;;;;;36.80;23.30;;;;;;;4.98;100.00;102412.91;105285;1261;59091;-68
2022/10/28 02:21:06;;;;;;;32.90;19.90;;;;;;;4.96;100.00;102411.58;105235;1270;62415;-69
2022/10/28 02:24:10;;;;;;;26.20;17.30;;;;;;;4.94;100.00;102407.15;105259;1263;61607;-69
2022/10/28 02:26:46;;;;;;;27.10;17.20;;;;;;;4.92;100.00;102411.32;105261;1264;70358;-70
2022/10/28 02:29:33;;;;;;;32.60;19.80;;;;;;;4.96;100.00;102409.16;105255;1270;73412;-69
2022/10/28 02:32:08;;;;;;;39.10;24.80;;;;;;;4.93;100.00;102412.00;105283;1265;62302;-69
2022/10/28 02:34:43;;;;;;;34.30;21.80;;;;;;;4.89;100.00;102416.05;105242;1275;58282;-69
2022/10/28 02:37:21;;;;;;;37.20;23.80;;;;;;;4.85;100.00;102413.05;105274;1275;70587;-69
2022/10/28 02:39:57;;;;;;;35.00;22.60;;;;;;;4.81;100.00;102410.35;105355;1270;72048;-69
2022/10/28 02:42:34;;;;;;;37.20;23.10;;;;;;;4.86;100.00;102411.64;105377;1269;71092;-67
2022/10/28 02:45:13;;;;;;;34.40;20.80;;;;;;;4.79;100.00;102417.82;105441;1275;74223;-68
2022/10/28 02:47:58;;;;;;;39.00;22.30;;;;;;;4.75;100.00;102420.85;105603;1275;57411;-69
2022/10/28 02:50:35;;;;;;;34.90;20.30;;;;;;;4.68;100.00;102422.88;105541;1272;58364;-69
2022/10/28 02:53:14;;;;;;;35.20;23.00;;;;;;;4.64;100.00;102423.48;105446;1267;71832;-69
2022/10/28 02:55:48;;;;;;;36.10;22.60;;;;;;;4.61;100.00;102421.48;105377;1267;71163;-69
2022/10/28 02:58:17;;;;;;;39.60;21.20;;;;;;;4.58;100.00;102419.96;105342;1274;67473;-68
2022/10/28 03:00:46;;;;;;;29.90;19.00;;;;;;;4.59;100.00;102423.60;105261;1273;73072;-69
2022/10/28 03:03:15;;;;;;;37.50;21.30;;;;;;;4.57;100.00;102423.64;105328;1273;58284;-69
2022/10/28 03:05:44;;;;;;;33.00;20.70;;;;;;;4.56;100.00;102423.66;105056;1273;57756;-69
2022/10/28 03:08:13;;;;;;;39.40;21.40;;;;;;;4.57;100.00;102422.25;105268;1276;61604;-67
2022/10/28 03:10:41;;;;;;;35.10;19.70;;;;;;;4.58;100.00;102418.77;105345;1270;72180;-68
2022/10/28 03:13:10;;;;;;;31.50;20.40;;;;;;;4.63;100.00;102419.37;105259;1273;60553;-68
2022/10/28 03:15:39;;;;;;;33.40;21.00;;;;;;;4.64;100.00;102420.55;105312;1269;73374;-68
2022/10/28 03:18:07;;;;;;;36.40;20.50;;;;;;;4.68;100.00;102414.08;105327;1273;58982;-68
2022/10/28 03:20:36;;;;;;;33.70;20.90;;;;;;;4.72;100.00;102411.41;105285;1266;59224;-69
2022/10/28 03:23:05;;;;;;;33.40;20.80;;;;;;;4.77;100.00;102408.20;105275;1267;72968;-68
2022/10/28 03:25:33;;;;;;;36.20;21.80;;;;;;;4.74;100.00;102407.92;105268;1268;62111;-69
2022/10/28 03:28:02;;;;;;;35.80;20.30;;;;;;;4.68;100.00;102403.21;105373;1275;59367;-69
2022/10/28 03:30:31;;;;;;;35.20;20.40;;;;;;;4.62;100.00;102403.70;105354;1267;63134;-68
2022/10/28 03:33:00;;;;;;;33.60;19.80;;;;;;;4.57;100.00;102405.34;105264;1273;59093;-69
2022/10/28 03:35:29;;;;;;;35.40;20.30;;;;;;;4.54;100.00;102403.84;105293;1275;60388;-70
2022/10/28 03:37:57;;;;;;;40.00;22.10;;;;;;;4.53;100.00;102404.39;105334;1269;72511;-69
2022/10/28 03:40:26;;;;;;;34.80;19.70;;;;;;;4.49;100.00;102401.00;105235;1269;62334;-69
2022/10/28 03:42:55;;;;;;;30.00;19.90;;;;;;;4.45;100.00;102403.86;105422;1275;70990;-70
2022/10/28 03:45:24;;;;;;;31.40;19.70;;;;;;;4.41;100.00;102405.46;105482;1263;72958;-71
2022/10/28 03:47:52;;;;;;;65.10;42.20;;;;;;;4.37;100.00;102407.62;105442;1273;62807;-69
2022/10/28 03:50:22;;;;;;;138.30;73.10;;;;;;;4.40;100.00;102404.81;105377;1264;60095;-70
2022/10/28 03:52:51;;;;;;;32.40;20.60;;;;;;;4.40;100.00;102405.34;105299;1275;61611;-70
2022/10/28 03:55:20;;;;;;;32.80;20.20;;;;;;;4.40;100.00;102406.18;105471;1270;72244;-69
2022/10/28 03:57:48;;;;;;;28.80;18.10;;;;;;;4.43;100.00;102405.61;105375;1267;70949;-69
2022/10/28 04:00:18;;;;;;;34.40;19.80;;;;;;;4.42;100.00;102403.91;105411;1273;63632;-71
2022/10/28 04:02:50;;;;;;;31.00;18.80;;;;;;;4.41;100.00;102407.55;105434;1267;59091;-70
2022/10/28 04:05:19;;;;;;;;;;;;;;;4.40;100.00;102406.52;105319;1269;60369;-69
2022/10/28 04:07:48;;;;;;;31.40;18.40;;;;;;;4.38;100.00;102405.73;105322;1266;63701;-70
2022/10/28 04:10:17;;;;;;;30.40;18.10;;;;;;;4.35;100.00;102406.63;105351;1267;61151;-71
2022/10/28 04:12:45;;;;;;;30.70;18.20;;;;;;;4.37;100.00;102409.00;105386;1275;68914;-70
2022/10/28 04:15:14;;;;;;;34.30;19.10;;;;;;;4.38;100.00;102406.92;105256;1264;64217;-69
2022/10/28 04:17:43;;;;;;;31.80;19.30;;;;;;;4.36;100.00;102403.51;105304;1264;58894;-71
2022/10/28 04:20:11;;;;;;;33.80;19.30;;;;;;;4.34;100.00;102402.67;105434;1271;60774;-71
2022/10/28 04:22:40;;;;;;;30.10;18.30;;;;;;;4.32;100.00;102405.15;105412;1263;62760;-70
2022/10/28 04:25:09;;;;;;;32.90;19.10;;;;;;;4.32;100.00;102407.57;105402;1267;61936;-71
2022/10/28 04:27:38;;;;;;;37.10;19.70;;;;;;;4.34;100.00;102403.20;105415;1274;59171;-69
2022/10/28 04:30:09;;;;;;;39.70;20.20;;;;;;;4.37;100.00;102402.46;105289;1278;62758;-68
2022/10/28 04:32:39;;;;;;;32.30;18.10;;;;;;;4.39;100.00;102403.95;105396;1268;61968;-70
2022/10/28 04:35:10;;;;;;;31.70;18.80;;;;;;;4.39;100.00;102401.73;105380;1267;59898;-69
2022/10/28 04:37:40;;;;;;;33.80;20.60;;;;;;;4.39;100.00;102403.64;105456;1264;72566;-70
2022/10/28 04:40:10;;;;;;;43.10;20.60;;;;;;;4.38;100.00;102405.19;105470;1267;62648;-71
2022/10/28 04:42:38;;;;;;;45.90;23.20;;;;;;;4.37;100.00;102405.40;105388;1275;69042;-72
2022/10/28 04:45:08;;;;;;;40.60;21.70;;;;;;;4.33;100.00;102402.20;105359;1267;63382;-71
2022/10/28 04:47:37;;;;;;;40.40;22.40;;;;;;;4.30;99.97;102398.80;105409;1267;60827;-71
2022/10/28 04:50:06;;;;;;;42.00;21.70;;;;;;;4.29;100.00;102401.91;105377;1263;60442;-72
2022/10/28 04:52:35;;;;;;;43.60;22.70;;;;;;;4.28;100.00;102404.90;105336;1278;61309;-72
2022/10/28 04:55:05;;;;;;;40.40;23.30;;;;;;;4.26;100.00;102406.30;105407;1263;72412;-71
2022/10/28 04:57:33;;;;;;;40.80;24.90;;;;;;;4.25;100.00;102405.45;105363;1264;60220;-73
2022/10/28 05:00:04;;;;;;;52.70;27.20;;;;;;;4.26;100.00;102407.85;105368;1275;71084;-70
2022/10/28 05:02:32;;;;;;;54.60;28.50;;;;;;;4.28;100.00;102404.52;105522;1273;61900;-70
2022/10/28 05:05:03;;;;;;;56.30;25.70;;;;;;;4.32;100.00;102400.66;105473;1275;59329;-72
2022/10/28 05:07:32;;;;;;;49.80;25.90;;;;;;;4.35;100.00;102399.91;105551;1256;72680;-72
2022/10/28 05:10:00;;;;;;;41.50;23.00;;;;;;;4.35;100.00;102397.84;105448;1267;62640;-70
2022/10/28 05:12:29;;;;;;;42.20;22.50;;;;;;;4.33;100.00;102401.34;105655;1261;59469;-70
2022/10/28 05:14:58;;;;;;;37.30;20.60;;;;;;;4.33;99.98;102403.05;105662;1263;73502;-71
2022/10/28 05:17:26;;;;;;;34.60;19.40;;;;;;;4.34;100.00;102404.23;105710;1270;62271;-71
2022/10/28 05:19:55;;;;;;;39.30;21.90;;;;;;;4.37;100.00;102409.35;105507;1270;59664;-70
2022/10/28 05:22:24;;;;;;;41.10;22.70;;;;;;;4.41;100.00;102406.33;105549;1266;73360;-70
2022/10/28 05:24:53;;;;;;;45.40;23.60;;;;;;;4.47;100.00;102406.23;105579;1267;71813;-70
2022/10/28 05:27:21;;;;;;;43.80;24.00;;;;;;;4.49;100.00;102409.81;105500;1268;69273;-68
2022/10/28 05:29:50;;;;;;;41.90;24.20;;;;;;;4.54;100.00;102406.77;105379;1266;72915;-71
2022/10/28 05:32:19;;;;;;;51.90;24.80;;;;;;;4.61;100.00;102403.70;105521;1273;62421;-70
2022/10/28 05:34:47;;;;;;;45.10;24.20;;;;;;;4.68;100.00;102404.06;105798;1264;61744;-69
2022/10/28 05:37:17;;;;;;;43.50;23.30;;;;;;;4.77;99.64;102404.75;105762;1260;73611;-72
2022/10/28 05:39:45;;;;;;;49.60;22.50;;;;;;;4.86;99.75;102406.28;105530;1260;72847;-71
2022/10/28 05:42:14;;;;;;;47.70;25.40;;;;;;;4.95;100.00;102401.25;105354;1271;60691;-70
2022/10/28 05:44:43;;;;;;;46.50;24.50;;;;;;;5.04;99.98;102401.89;105566;1270;73361;-71
2022/10/28 05:47:11;;;;;;;41.50;24.60;;;;;;;5.13;100.00;102406.55;105346;1270;61883;-69
2022/10/28 05:49:40;;;;;;;48.90;27.10;;;;;;;5.21;100.00;102405.70;105774;1268;59069;-70
2022/10/28 05:52:09;;;;;;;45.30;25.80;;;;;;;5.31;100.00;102407.17;105857;1270;62321;-71
2022/10/28 05:54:38;;;;;;;48.90;25.90;;;;;;;5.45;99.37;102405.98;105503;1270;61125;-72
2022/10/28 05:57:06;;;;;;;47.60;25.70;;;;;;;5.58;98.66;102401.14;105596;1270;61991;-70
2022/10/28 05:59:35;;;;;;;46.40;25.70;;;;;;;5.65;98.82;102397.35;107657;1267;65186;-72
2022/10/28 06:02:04;;;;;;;50.00;26.40;;;;;;;5.83;98.76;102412.45;106750;1260;58744;-71
2022/10/28 06:04:32;;;;;;;53.10;27.40;;;;;;;5.96;98.74;102409.05;105594;1263;60460;-71
2022/10/28 06:07:02;;;;;;;41.90;26.10;;;;;;;6.10;97.82;102407.30;105459;1261;74109;-70
2022/10/28 06:09:31;;;;;;;43.40;25.70;;;;;;;6.21;95.67;102403.38;105507;1270;62176;-71
2022/10/28 06:12:00;;;;;;;48.80;26.50;;;;;;;6.30;93.51;102402.27;105592;1267;59210;-71
2022/10/28 06:14:29;;;;;;;53.20;26.80;;;;;;;6.40;93.42;102406.98;105545;1272;63153;-72
2022/10/28 06:16:58;;;;;;;44.10;25.40;;;;;;;6.46;94.40;102409.08;105435;1260;62037;-70
2022/10/28 06:19:26;;;;;;;48.40;26.60;;;;;;;6.43;92.94;102411.95;105425;1270;59490;-69
2022/10/28 06:21:55;;;;;;;41.10;24.60;;;;;;;6.38;92.60;102412.08;105490;1269;63578;-70
2022/10/28 06:24:24;;;;;;;44.30;25.30;;;;;;;6.34;92.91;102414.60;105459;1264;72381;-70
2022/10/28 06:26:52;;;;;;;42.10;25.20;;;;;;;6.35;92.85;102421.48;105466;1270;70986;-72
2022/10/28 06:29:21;;;;;;;51.80;24.80;;;;;;;6.45;93.14;102423.84;105519;1260;63026;-71
2022/10/28 06:31:50;;;;;;;36.30;22.40;;;;;;;6.53;92.91;102422.90;105573;1261;62443;-69
2022/10/28 06:34:18;;;;;;;41.00;21.50;;;;;;;6.65;92.57;102425.15;105637;1256;60010;-72
2022/10/28 06:36:47;;;;;;;42.70;23.20;;;;;;;6.73;91.87;102419.03;105607;1270;63456;-71
2022/10/28 06:39:16;;;;;;;42.20;23.40;;;;;;;6.82;91.45;102423.11;105566;1263;60983;-71
2022/10/28 06:41:45;;;;;;;47.90;28.00;;;;;;;6.90;91.15;102425.80;105556;1273;70346;-70
2022/10/28 06:44:14;;;;;;;58.50;31.10;;;;;;;6.97;90.45;102424.73;105557;1270;62672;-71
2022/10/28 06:46:43;;;;;;;53.70;31.20;;;;;;;7.11;90.36;102424.85;105531;1267;62476;-70
2022/10/28 06:49:11;;;;;;;53.00;29.50;;;;;;;7.24;90.10;102429.64;105495;1270;59788;-71
2022/10/28 06:51:40;;;;;;;48.70;28.60;;;;;;;7.32;90.20;102431.27;105517;1275;62906;-72
2022/10/28 06:54:08;;;;;;;46.80;27.00;;;;;;;7.42;89.87;102431.14;105527;1259;71533;-71
2022/10/28 06:56:37;;;;;;;61.00;28.20;;;;;;;7.56;89.58;102435.19;105499;1270;59278;-72
2022/10/28 06:59:07;;;;;;;45.90;28.10;;;;;;;7.66;88.17;102435.22;105510;1266;63928;-71
2022/10/28 07:01:36;;;;;;;56.80;29.90;;;;;;;7.78;87.88;102439.33;105538;1267;59093;-74
2022/10/28 07:04:12;;;;;;;;;;;;;;;7.90;87.01;102438.08;105483;1275;58280;-72
2022/10/28 07:06:41;;;;;;;51.10;25.10;;;;;;;8.09;87.82;102440.90;105503;1275;70750;-71
2022/10/28 07:09:13;;;;;;;50.10;27.70;;;;;;;8.24;87.99;102440.70;105436;1267;73072;-72
2022/10/28 07:11:43;;;;;;;49.90;27.30;;;;;;;8.37;87.48;102435.95;105533;1266;61289;-70
2022/10/28 07:14:12;;;;;;;52.00;28.50;;;;;;;8.48;87.59;102438.14;105558;1260;71098;-71
2022/10/28 07:16:41;;;;;;;49.80;29.20;;;;;;;8.57;86.49;102436.61;105558;1255;62513;-73
2022/10/28 07:19:09;;;;;;;45.80;28.00;;;;;;;8.70;86.71;102435.25;105666;1261;62342;-71
2022/10/28 07:21:38;;;;;;;60.20;27.40;;;;;;;8.80;85.25;102435.08;105585;1270;63279;-74
2022/10/28 07:24:07;;;;;;;41.90;25.50;;;;;;;8.96;86.37;102436.35;105574;1260;72424;-73
2022/10/28 07:26:36;;;;;;;45.10;27.60;;;;;;;9.10;85.46;102434.79;105578;1267;60530;-72
2022/10/28 07:29:05;;;;;;;45.80;27.40;;;;;;;9.23;85.21;102430.09;105476;1270;74702;-70
2022/10/28 07:31:33;;;;;;;46.50;28.30;;;;;;;9.41;85.66;102432.02;105413;1275;64084;-70
2022/10/28 07:34:02;;;;;;;46.40;27.10;;;;;;;9.47;84.08;102432.97;105509;1274;57272;-71
2022/10/28 07:36:31;;;;;;;45.00;27.90;;;;;;;9.64;83.83;102430.17;105556;1270;63117;-72
2022/10/28 07:38:59;;;;;;;49.60;26.30;;;;;;;9.83;84.33;102429.58;105581;1266;71677;-73
2022/10/28 07:41:28;;;;;;;44.10;27.20;;;;;;;9.98;83.92;102427.56;105456;1260;71052;-72
2022/10/28 07:43:57;;;;;;;44.50;26.20;;;;;;;10.14;84.37;102432.99;105544;1274;64034;-73
2022/10/28 07:46:26;;;;;;;41.10;26.70;;;;;;;10.25;82.85;102428.83;105609;1267;58920;-72
2022/10/28 07:48:54;;;;;;;44.10;25.80;;;;;;;10.43;82.31;102433.11;105493;1267;61307;-72
2022/10/28 07:51:23;;;;;;;35.40;23.40;;;;;;;10.60;82.63;102428.35;105529;1270;64259;-72
2022/10/28 07:53:52;;;;;;;38.40;23.70;;;;;;;10.79;83.44;102430.27;105469;1267;61865;-71
2022/10/28 07:56:21;;;;;;;37.40;24.30;;;;;;;10.95;82.75;102430.91;105529;1264;70715;-71
2022/10/28 07:58:50;;;;;;;37.90;22.10;;;;;;;11.07;81.54;102433.16;105467;1265;64679;-70
2022/10/28 08:01:20;;;;;;;53.90;35.10;;;;;;;11.25;81.42;102435.06;105462;1261;62870;-71
2022/10/28 08:03:49;;;;;;;44.70;27.20;;;;;;;11.34;79.85;102432.02;105540;1272;62336;-72
2022/10/28 08:06:19;;;;;;;32.50;23.50;;;;;;;11.47;80.28;102432.29;105506;1272;63601;-73
2022/10/28 08:08:54;;;;;;;38.10;22.80;;;;;;;11.66;81.31;102437.97;105490;1271;61879;-74
2022/10/28 08:11:23;;;;;;;39.50;24.10;;;;;;;11.85;81.13;102437.21;105734;1267;59871;-73
2022/10/28 08:13:54;;;;;;;39.00;23.90;;;;;;;12.00;80.37;102438.04;105606;1265;62354;-73
2022/10/28 08:16:23;;;;;;;40.80;24.20;;;;;;;12.03;78.66;102432.84;105481;1270;59186;-72
2022/10/28 08:18:52;;;;;;;46.60;25.70;;;;;;;12.16;77.94;102437.90;105508;1267;61142;-73
2022/10/28 08:21:21;;;;;;;40.50;25.70;;;;;;;12.31;78.28;102434.69;105470;1273;73081;-71
2022/10/28 08:23:50;;;;;;;42.60;25.50;;;;;;;12.45;78.57;102430.43;105651;1260;71994;-73
2022/10/28 08:26:19;;;;;;;35.10;25.10;;;;;;;12.47;76.46;102431.06;105384;1270;69160;-71
2022/10/28 08:28:47;;;;;;;37.50;24.80;;;;;;;12.67;77.40;102431.57;105600;1272;74686;-72
2022/10/28 08:31:16;;;;;;;37.20;24.70;;;;;;;12.70;75.59;102434.55;105685;1264;59006;-71
2022/10/28 08:33:45;;;;;;;37.20;24.00;;;;;;;12.78;75.90;102426.91;105679;1261;61002;-75
2022/10/28 08:36:16;;;;;;;32.00;22.20;;;;;;;12.97;76.67;102426.92;105644;1272;72985;-73
2022/10/28 08:38:46;;;;;;;39.00;23.80;;;;;;;13.11;75.90;102424.59;105602;1267;71724;-71
2022/10/28 08:41:29;;;;;;;39.20;21.00;;;;;;;13.16;74.58;102423.08;105552;1270;60904;-72
2022/10/28 08:44:49;;;;;;;26.90;19.00;;;;;;;13.26;73.88;102424.63;105441;1267;63376;-71
2022/10/28 08:47:52;;;;;;;29.70;17.90;;;;;;;13.49;74.33;102426.16;105564;1267;61314;-72
2022/10/28 08:50:26;;;;;;;32.40;19.80;;;;;;;13.67;75.41;102425.45;105534;1272;58964;-73
2022/10/28 08:53:05;;;;;;;35.70;20.70;;;;;;;13.72;72.24;102420.95;105493;1270;62861;-72
2022/10/28 08:55:44;;;;;;;38.10;22.00;;;;;;;13.85;72.59;102418.25;105418;1262;71027;-71
2022/10/28 08:58:25;;;;;;;29.10;17.80;;;;;;;13.94;73.73;102419.46;105528;1270;70360;-72
2022/10/28 09:00:58;;;;;;;29.50;18.20;;;;;;;14.00;74.34;102412.11;105560;1260;64167;-73
2022/10/28 09:03:37;;;;;;;;;;;;;;;14.02;72.43;102407.77;105493;1275;58082;-71
2022/10/28 09:06:09;;;;;;;32.20;19.80;;;;;;;13.93;70.08;102405.85;105513;1267;59049;-72
2022/10/28 09:08:45;;;;;;;36.20;23.10;;;;;;;14.08;71.81;102403.03;105420;1267;72566;-73
2022/10/28 09:11:45;;;;;;;38.40;22.90;;;;;;;14.26;73.10;102401.10;105376;1270;71151;-71
2022/10/28 09:14:57;;;;;;;34.70;23.10;;;;;;;14.38;70.98;102397.01;105426;1256;70535;-73
2022/10/28 09:17:50;;;;;;;36.70;23.20;;;;;;;14.45;68.38;102390.66;105434;1267;62266;-73
2022/10/28 09:20:49;;;;;;;31.70;23.10;;;;;;;14.53;67.75;102386.83;105535;1267;60366;-73
2022/10/28 09:23:35;;;;;;;36.90;23.70;;;;;;;14.70;68.70;102385.05;105294;1260;62032;-71
2022/10/28 09:26:36;;;;;;;45.20;24.10;;;;;;;14.86;69.10;102380.54;105346;1266;73520;-74
2022/10/28 09:29:14;;;;;;;36.10;24.20;;;;;;;14.89;66.89;102378.23;105453;1270;61866;-72
2022/10/28 09:31:48;;;;;;;32.10;21.20;;;;;;;15.04;66.69;102380.41;105624;1267;59445;-71
2022/10/28 09:34:46;;;;;;;31.00;20.70;;;;;;;15.09;66.10;102379.88;105438;1275;73731;-73
2022/10/28 09:37:26;;;;;;;31.90;21.70;;;;;;;15.15;65.94;102375.16;105501;1275;57608;-71
2022/10/28 09:40:04;;;;;;;40.50;21.40;;;;;;;15.28;66.81;102371.08;105455;1273;59910;-72
2022/10/28 09:42:51;;;;;;;37.30;20.90;;;;;;;15.25;66.47;102373.08;105514;1267;63445;-75
2022/10/28 09:45:27;;;;;;;36.60;20.70;;;;;;;15.45;66.79;102373.89;105550;1267;61518;-71
2022/10/28 09:48:08;;;;;;;31.50;19.00;;;;;;;15.61;65.79;102371.57;105496;1270;59201;-73
2022/10/28 09:50:37;;;;;;;30.10;17.90;;;;;;;15.60;65.14;102367.55;105468;1266;72280;-70
2022/10/28 09:53:20;;;;;;;29.40;19.80;;;;;;;15.80;65.16;102364.81;105573;1266;59031;-72
2022/10/28 09:55:50;;;;;;;29.50;17.70;;;;;;;15.88;64.23;102366.20;105555;1270;60297;-73
2022/10/28 09:58:19;;;;;;;30.70;18.50;;;;;;;15.89;63.63;102361.56;105491;1269;72973;-73
2022/10/28 10:00:48;;;;;;;25.40;17.30;;;;;;;16.14;64.68;102356.03;105514;1264;71763;-73
2022/10/28 10:03:17;;;;;;;26.60;17.20;;;;;;;16.28;63.80;102354.81;105549;1266;60548;-74
2022/10/28 10:05:52;;;;;;;27.80;16.20;;;;;;;16.34;62.56;102348.41;105524;1263;63584;-74
2022/10/28 10:08:22;;;;;;;22.20;16.10;;;;;;;16.53;62.75;102346.38;105552;1275;61187;-74
2022/10/28 10:11:06;;;;;;;22.80;14.40;;;;;;;16.66;60.90;102340.48;105726;1275;58954;-73
2022/10/28 10:13:37;;;;;;;;;;;;;;;16.60;60.07;102338.98;105467;1275;62456;-73
2022/10/28 10:16:38;;;;;;;23.30;14.00;;;;;;;16.67;60.38;102333.77;105701;1267;60706;-73
2022/10/28 10:19:10;;;;;;;21.80;13.60;;;;;;;17.21;62.02;102332.57;105572;1266;59219;-74
2022/10/28 10:21:43;;;;;;;23.50;14.40;;;;;;;17.55;59.17;102328.05;105601;1269;62231;-73
2022/10/28 10:24:22;;;;;;;;;;;;;;;17.70;57.65;102323.27;105649;1267;61107;-73
2022/10/28 10:26:52;;;;;;;22.20;12.80;;;;;;;17.71;57.04;102319.26;105756;1261;60836;-73
2022/10/28 10:29:22;;;;;;;19.40;13.20;;;;;;;17.91;56.60;102321.62;105789;1270;73807;-70
2022/10/28 10:32:16;;;;;;;22.50;13.30;;;;;;;18.36;55.98;102315.06;105598;1271;71230;-73
2022/10/28 10:34:56;;;;;;;21.60;13.00;;;;;;;18.59;55.17;102316.08;105458;1269;70470;-73
2022/10/28 10:37:26;;;;;;;17.10;11.90;;;;;;;18.68;54.17;102311.09;105611;1272;63849;-74
2022/10/28 10:40:41;;;;;;;14.50;11.40;;;;;;;18.68;53.58;102307.95;105504;1273;59184;-73
2022/10/28 10:43:33;;;;;;;18.00;11.20;;;;;;;19.02;53.83;102308.27;105334;1275;60337;-73
2022/10/28 10:46:02;;;;;;;;;;;;;;;19.47;52.55;102302.57;105608;1262;72403;-73
2022/10/28 10:48:35;;;;;;;20.40;12.80;;;;;;;19.67;52.02;102301.05;105466;1267;61654;-74
2022/10/28 10:51:26;;;;;;;21.50;11.60;;;;;;;19.48;52.09;102294.67;105587;1262;70356;-73
2022/10/28 10:54:00;;;;;;;20.40;11.70;;;;;;;19.18;51.30;102296.88;105649;1262;73260;-72
2022/10/28 10:56:32;;;;;;;16.80;11.50;;;;;;;19.41;51.52;102293.52;105664;1260;58791;-76
2022/10/28 10:59:06;;;;;;;27.90;12.80;;;;;;;19.74;51.28;102289.84;105550;1260;61122;-76
2022/10/28 11:01:38;;;;;;;21.80;11.50;;;;;;;19.75;50.71;102288.39;105551;1270;63314;-73
2022/10/28 11:04:16;;;;;;;21.60;12.40;;;;;;;20.05;50.60;102287.34;105520;1261;71263;-72
2022/10/28 11:06:51;;;;;;;16.90;11.40;;;;;;;20.13;49.60;102282.35;105560;1266;70835;-71
2022/10/28 11:09:38;;;;;;;16.50;10.30;;;;;;;19.69;49.40;102281.58;105584;1264;72291;-72
2022/10/28 11:12:35;;;;;;;16.90;10.40;;;;;;;20.29;48.97;102277.95;105458;1267;60085;-72
2022/10/28 11:15:25;;;;;;;19.90;11.90;;;;;;;20.26;48.88;102272.18;105522;1268;57531;-72
2022/10/28 11:18:22;;;;;;;16.80;10.90;;;;;;;20.04;48.91;102270.11;105572;1273;62813;-73
2022/10/28 11:21:11;;;;;;;15.10;9.70;;;;;;;20.66;48.08;102267.59;105677;1273;61695;-71
2022/10/28 11:23:53;;;;;;;20.30;11.00;;;;;;;20.32;47.72;102261.55;105623;1264;70178;-72
2022/10/28 11:26:23;;;;;;;17.60;10.40;;;;;;;19.95;48.38;102263.59;105711;1264;73895;-70
2022/10/28 11:29:13;;;;;;;16.60;10.00;;;;;;;20.09;48.13;102261.34;105622;1275;58695;-72
2022/10/28 11:32:23;;;;;;;17.60;10.20;;;;;;;20.25;47.83;102254.63;105676;1266;59344;-73
2022/10/28 11:35:24;;;;;;;17.50;8.80;;;;;;;20.32;47.65;102249.52;105502;1270;62872;-73
2022/10/28 11:37:58;;;;;;;13.70;8.80;;;;;;;20.31;46.83;102245.05;105650;1264;71398;-72
2022/10/28 11:40:52;;;;;;;13.10;7.90;;;;;;;20.68;46.49;102240.33;105424;1261;59930;-75
2022/10/28 11:43:39;;;;;;;10.80;8.40;;;;;;;21.49;45.26;102241.09;105562;1270;62445;-73
2022/10/28 11:46:58;;;;;;;16.20;8.80;;;;;;;21.61;44.70;102241.70;105544;1270;61097;-74
2022/10/28 11:50:19;;;;;;;15.60;8.30;;;;;;;21.68;44.04;102240.89;105608;1262;57421;-76
2022/10/28 11:53:20;;;;;;;14.50;7.40;;;;;;;21.79;42.85;102235.09;105657;1275;72599;-73